Time;durP1;ratioP1;P1;durP2;ratioP2;P2;SDS_P1;SDS_P2;PMS_P1;PMS_P2;Temp;Humidity;BMP_temperature;BMP_pressure;BME280_temperature;BME280_humidity;BME280_pressure;Samples;Min_cycle;Max_cycle;Signal;HPM_P1;HPM_P2
2022/10/09 00:00:35;;;;;;;30.43;15.87;;;;;;;;;;5049620;28;20786;-42
2022/10/09 00:03:01;;;;;;;38.00;17.37;;;;;;;;;;5050640;28;20424;-42
2022/10/09 00:05:27;;;;;;;38.17;18.00;;;;;;;;;;5051233;28;20482;-45
2022/10/09 00:07:54;;;;;;;33.13;18.07;;;;;;;;;;5050992;28;20904;-45
2022/10/09 00:10:20;;;;;;;27.37;15.77;;;;;;;;;;5050824;28;20484;-45
2022/10/09 00:12:46;;;;;;;29.10;17.63;;;;;;;;;;5054131;28;20411;-42
2022/10/09 00:15:12;;;;;;;40.00;16.83;;;;;;;;;;5054588;28;20410;-42
2022/10/09 00:17:38;;;;;;;28.90;17.30;;;;;;;;;;5054496;28;20440;-42
2022/10/09 00:20:05;;;;;;;25.73;16.10;;;;;;;;;;5053055;28;20472;-40
2022/10/09 00:22:31;;;;;;;26.30;17.77;;;;;;;;;;5053897;28;20419;-40
2022/10/09 00:24:56;;;;;;;34.83;21.63;;;;;;;;;;5054284;28;20404;-44
2022/10/09 00:27:23;;;;;;;37.70;20.03;;;;;;;;;;5054079;28;20411;-45
2022/10/09 00:29:49;;;;;;;26.40;15.70;;;;;;;;;;5053015;28;20412;-44
2022/10/09 00:32:15;;;;;;;28.57;15.00;;;;;;;;;;5053681;28;20926;-42
2022/10/09 00:34:41;;;;;;;25.23;13.53;;;;;;;;;;5054456;28;20410;-41
2022/10/09 00:37:07;;;;;;;30.17;12.80;;;;;;;;;;5054229;28;20417;-40
2022/10/09 00:39:33;;;;;;;21.97;12.60;;;;;;;;;;5053836;28;20954;-43
2022/10/09 00:41:59;;;;;;;23.07;10.60;;;;;;;;;;5053509;28;20453;-40
2022/10/09 00:44:45;;;;;;;16.83;9.40;;;;;;;;;;5053986;28;20411;-42
2022/10/09 00:47:18;;;;;;;12.40;8.73;;;;;;;;;;5054057;28;20417;-42
2022/10/09 00:49:44;;;;;;;26.30;10.93;;;;;;;;;;5053847;28;20410;-42
2022/10/09 00:52:11;;;;;;;24.43;12.77;;;;;;;;;;5053032;28;20468;-42
2022/10/09 00:54:38;;;;;;;25.90;15.40;;;;;;;;;;5053989;28;20403;-42
2022/10/09 00:57:05;;;;;;;34.17;14.17;;;;;;;;;;5053847;28;20500;-42
2022/10/09 00:59:32;;;;;;;21.13;12.23;;;;;;;;;;5053647;28;20864;-42
2022/10/09 01:01:57;;;;;;;26.73;11.63;;;;;;;;;;5052068;28;20406;-43
2022/10/09 01:04:24;;;;;;;23.70;11.90;;;;;;;;;;5053147;28;20408;-42
2022/10/09 01:07:00;;;;;;;33.70;13.73;;;;;;;;;;5053252;28;20407;-43
2022/10/09 01:09:41;;;;;;;32.77;14.10;;;;;;;;;;5053114;28;20448;-44
2022/10/09 01:12:07;;;;;;;32.93;15.67;;;;;;;;;;5052634;28;20415;-42
2022/10/09 01:14:36;;;;;;;22.70;15.37;;;;;;;;;;5054035;28;20420;-42
2022/10/09 01:17:07;;;;;;;23.07;14.07;;;;;;;;;;5053329;28;20871;-42
2022/10/09 01:19:52;;;;;;;22.90;13.10;;;;;;;;;;5053089;28;20516;-42
2022/10/09 01:22:24;;;;;;;24.93;15.27;;;;;;;;;;5051553;28;20410;-43
2022/10/09 01:24:55;;;;;;;31.77;15.60;;;;;;;;;;5053242;28;20404;-43
2022/10/09 01:27:23;;;;;;;26.97;16.10;;;;;;;;;;5053064;28;20410;-43
2022/10/09 01:29:52;;;;;;;22.70;15.60;;;;;;;;;;5053166;28;20407;-43
2022/10/09 01:32:20;;;;;;;34.50;14.03;;;;;;;;;;5052318;28;20423;-43
2022/10/09 01:34:47;;;;;;;16.10;10.80;;;;;;;;;;5053014;28;20403;-43
2022/10/09 01:37:14;;;;;;;14.00;9.77;;;;;;;;;;5052590;28;20564;-42
2022/10/09 01:39:41;;;;;;;20.57;11.00;;;;;;;;;;5052532;28;20466;-43
2022/10/09 01:42:07;;;;;;;26.47;12.47;;;;;;;;;;5060259;28;20432;-42
2022/10/09 01:44:33;;;;;;;19.10;13.70;;;;;;;;;;5072864;28;20397;-43
2022/10/09 01:46:59;;;;;;;24.23;12.53;;;;;;;;;;5072590;28;20943;-43
2022/10/09 01:49:38;;;;;;;22.93;14.00;;;;;;;;;;5072706;28;20426;-43
2022/10/09 01:52:22;;;;;;;26.03;12.30;;;;;;;;;;5071740;28;20410;-43
2022/10/09 01:54:54;;;;;;;13.67;9.80;;;;;;;;;;5072873;28;20420;-43
2022/10/09 01:57:27;;;;;;;25.70;12.00;;;;;;;;;;5072326;28;20413;-43
2022/10/09 01:59:55;;;;;;;18.40;11.30;;;;;;;;;;5072557;28;20506;-42
2022/10/09 02:02:21;;;;;;;17.63;10.83;;;;;;;;;;5071462;28;20429;-43
2022/10/09 02:04:48;;;;;;;19.23;9.90;;;;;;;;;;5072338;28;20875;-42
2022/10/09 02:07:14;;;;;;;18.50;10.00;;;;;;;;;;5072146;28;20405;-43
2022/10/09 02:09:40;;;;;;;12.60;8.00;;;;;;;;;;5072707;28;20410;-42
2022/10/09 02:12:07;;;;;;;12.83;7.33;;;;;;;;;;5071306;28;20471;-42
2022/10/09 02:14:33;;;;;;;10.40;8.57;;;;;;;;;;5072299;28;20402;-43
2022/10/09 02:17:03;;;;;;;18.23;9.13;;;;;;;;;;5072044;28;20420;-42
2022/10/09 02:19:35;;;;;;;12.57;7.63;;;;;;;;;;5071902;28;20454;-42
2022/10/09 02:22:07;;;;;;;20.80;8.13;;;;;;;;;;5071362;28;20471;-43
2022/10/09 02:24:33;;;;;;;10.00;7.10;;;;;;;;;;5072311;28;20408;-42
2022/10/09 02:27:00;;;;;;;8.97;7.00;;;;;;;;;;5071846;28;20512;-42
2022/10/09 02:29:26;;;;;;;15.40;6.90;;;;;;;;;;5072032;28;20835;-43
2022/10/09 02:31:52;;;;;;;16.10;7.23;;;;;;;;;;5071099;28;20413;-42
2022/10/09 02:34:19;;;;;;;13.93;7.87;;;;;;;;;;5071688;28;20408;-43
2022/10/09 02:36:46;;;;;;;14.60;8.60;;;;;;;;;;5071666;28;20787;-42
2022/10/09 02:39:12;;;;;;;17.03;7.83;;;;;;;;;;5071754;28;20464;-43
2022/10/09 02:41:38;;;;;;;15.80;8.03;;;;;;;;;;5071075;28;20389;-42
2022/10/09 02:44:04;;;;;;;12.47;9.30;;;;;;;;;;5071715;28;20410;-42
2022/10/09 02:46:31;;;;;;;15.43;8.10;;;;;;;;;;5071833;28;20856;-42
2022/10/09 02:48:57;;;;;;;9.37;7.30;;;;;;;;;;5072004;28;20424;-43
2022/10/09 02:51:23;;;;;;;10.97;6.93;;;;;;;;;;5071408;28;20408;-42
2022/10/09 02:53:51;;;;;;;15.87;9.03;;;;;;;;;;5071457;28;20521;-42
2022/10/09 02:56:17;;;;;;;10.90;7.20;;;;;;;;;;5071787;28;20492;-42
2022/10/09 02:58:43;;;;;;;17.13;7.57;;;;;;;;;;5071286;28;20555;-42
2022/10/09 03:01:09;;;;;;;12.60;7.47;;;;;;;;;;5071499;28;20569;-42
2022/10/09 03:03:35;;;;;;;8.93;6.40;;;;;;;;;;5070757;28;20229;-42
2022/10/09 03:06:10;;;;;;;7.73;6.13;;;;;;;;;;5071728;28;20894;-42
2022/10/09 03:08:38;;;;;;;8.83;5.90;;;;;;;;;;5071289;28;20517;-42
2022/10/09 03:11:04;;;;;;;10.37;5.60;;;;;;;;;;5071462;28;20398;-42
2022/10/09 03:13:31;;;;;;;9.27;6.07;;;;;;;;;;5070721;28;20432;-42
2022/10/09 03:16:08;;;;;;;6.30;5.53;;;;;;;;;;5071766;28;20746;-42
2022/10/09 03:18:34;;;;;;;9.87;7.53;;;;;;;;;;5071045;28;20465;-42
2022/10/09 03:21:00;;;;;;;11.50;8.02;;;;;;;;;;5071453;28;20496;-42
2022/10/09 03:23:26;;;;;;;11.90;8.40;;;;;;;;;;5070684;28;20198;-42
2022/10/09 03:25:57;;;;;;;12.73;7.00;;;;;;;;;;5071497;28;20480;-42
2022/10/09 03:28:23;;;;;;;10.00;7.37;;;;;;;;;;5071049;28;20437;-42
2022/10/09 03:30:48;;;;;;;16.50;7.40;;;;;;;;;;5071153;28;20816;-42
2022/10/09 03:33:14;;;;;;;12.80;7.00;;;;;;;;;;5070715;28;20418;-42
2022/10/09 03:35:41;;;;;;;10.10;7.67;;;;;;;;;;5071396;28;20920;-42
2022/10/09 03:38:07;;;;;;;10.50;7.55;;;;;;;;;;5070978;28;20518;-42
2022/10/09 03:40:33;;;;;;;11.63;7.07;;;;;;;;;;5071453;28;20170;-42
2022/10/09 03:42:58;;;;;;;13.93;7.20;;;;;;;;;;5070584;28;20415;-42
2022/10/09 03:45:25;;;;;;;7.33;5.87;;;;;;;;;;5071086;28;20407;-42
2022/10/09 03:47:50;;;;;;;12.77;5.87;;;;;;;;;;5074620;28;20444;-42
2022/10/09 03:50:16;;;;;;;12.13;7.03;;;;;;;;;;5075194;28;20779;-42
2022/10/09 03:52:42;;;;;;;14.97;6.23;;;;;;;;;;5074189;28;20767;-42
2022/10/09 03:55:08;;;;;;;12.33;7.00;;;;;;;;;;5074708;28;20401;-42
2022/10/09 03:57:34;;;;;;;12.03;6.63;;;;;;;;;;5074576;28;20425;-42
2022/10/09 04:00:00;;;;;;;7.85;5.93;;;;;;;;;;5074924;28;20483;-42
2022/10/09 04:02:26;;;;;;;9.57;6.43;;;;;;;;;;5073849;28;20263;-42
2022/10/09 04:04:52;;;;;;;6.97;6.30;;;;;;;;;;5074619;28;20429;-42
2022/10/09 04:07:18;;;;;;;14.97;6.80;;;;;;;;;;5074818;28;20400;-43
2022/10/09 04:09:44;;;;;;;12.57;7.00;;;;;;;;;;5074616;28;20412;-42
2022/10/09 04:12:10;;;;;;;8.83;6.30;;;;;;;;;;5073811;28;20499;-42
2022/10/09 04:14:36;;;;;;;9.80;6.80;;;;;;;;;;5074489;28;20396;-42
2022/10/09 04:17:02;;;;;;;18.52;7.68;;;;;;;;;;5074578;28;20880;-42
2022/10/09 04:19:28;;;;;;;14.50;7.87;;;;;;;;;;5074189;28;20402;-42
2022/10/09 04:21:54;;;;;;;13.93;6.10;;;;;;;;;;5073903;28;20911;-42
2022/10/09 04:24:20;;;;;;;10.20;5.90;;;;;;;;;;5074011;28;20955;-42
2022/10/09 04:26:46;;;;;;;10.17;6.50;;;;;;;;;;5074344;28;20911;-42
2022/10/09 04:29:12;;;;;;;6.63;5.90;;;;;;;;;;5074242;28;20932;-42
2022/10/09 04:31:38;;;;;;;16.17;5.77;;;;;;;;;;5073817;28;20912;-42
2022/10/09 04:34:04;;;;;;;6.20;5.13;;;;;;;;;;5073822;28;20420;-42
2022/10/09 04:36:30;;;;;;;7.40;6.23;;;;;;;;;;5074280;28;20404;-42
2022/10/09 04:38:56;;;;;;;6.23;5.63;;;;;;;;;;5073693;28;20470;-42
2022/10/09 04:41:22;;;;;;;14.38;6.70;;;;;;;;;;5073597;28;20497;-42
2022/10/09 04:43:48;;;;;;;14.53;6.90;;;;;;;;;;5074087;28;20674;-42
2022/10/09 04:46:14;;;;;;;9.77;6.77;;;;;;;;;;5073737;28;20403;-42
2022/10/09 04:48:41;;;;;;;10.55;6.95;;;;;;;;;;5073666;28;20455;-42
2022/10/09 04:51:08;;;;;;;13.13;6.85;;;;;;;;;;5073779;28;20240;-42
2022/10/09 04:53:34;;;;;;;12.70;5.35;;;;;;;;;;5073215;28;20178;-42
2022/10/09 04:56:04;;;;;;;8.63;5.50;;;;;;;;;;5073675;28;20185;-43
2022/10/09 04:58:30;;;;;;;6.03;5.43;;;;;;;;;;5072695;28;20728;-42
2022/10/09 05:00:57;;;;;;;10.60;6.85;;;;;;;;;;5073576;28;20961;-42
2022/10/09 05:03:23;;;;;;;12.13;6.15;;;;;;;;;;5073023;28;20186;-42
2022/10/09 05:05:49;;;;;;;13.03;6.30;;;;;;;;;;5073536;28;20603;-42
2022/10/09 05:08:15;;;;;;;9.63;6.80;;;;;;;;;;5073177;28;20463;-42
2022/10/09 05:10:40;;;;;;;14.77;5.93;;;;;;;;;;5073644;28;20401;-42
2022/10/09 05:13:06;;;;;;;9.30;6.40;;;;;;;;;;5072945;28;20966;-43
2022/10/09 05:15:35;;;;;;;10.47;6.40;;;;;;;;;;5073347;28;20938;-42
2022/10/09 05:18:01;;;;;;;15.55;7.40;;;;;;;;;;5073009;28;20834;-42
2022/10/09 05:20:27;;;;;;;8.87;6.00;;;;;;;;;;5073453;28;20176;-42
2022/10/09 05:22:53;;;;;;;15.97;6.60;;;;;;;;;;5072402;28;20404;-42
2022/10/09 05:25:19;;;;;;;15.73;6.53;;;;;;;;;;5073079;28;20400;-42
2022/10/09 05:27:45;;;;;;;10.63;7.40;;;;;;;;;;5072846;28;20194;-42
2022/10/09 05:30:11;;;;;;;13.03;8.07;;;;;;;;;;5073184;28;20400;-42
2022/10/09 05:32:37;;;;;;;7.72;5.72;;;;;;;;;;5072575;28;20404;-42
2022/10/09 05:35:03;;;;;;;22.63;5.83;;;;;;;;;;5072542;28;20201;-42
2022/10/09 05:37:29;;;;;;;13.38;6.22;;;;;;;;;;5072877;28;20404;-42
2022/10/09 05:39:55;;;;;;;8.30;5.63;;;;;;;;;;5072847;28;20202;-42
2022/10/09 05:42:21;;;;;;;7.57;5.47;;;;;;;;;;5072483;28;20977;-43
2022/10/09 05:44:47;;;;;;;10.80;6.00;;;;;;;;;;5072602;28;20781;-42
2022/10/09 05:47:16;;;;;;;8.10;6.67;;;;;;;;;;5072673;28;20837;-43
2022/10/09 05:49:42;;;;;;;9.13;6.07;;;;;;;;;;5072517;28;20411;-43
2022/10/09 05:52:08;;;;;;;9.07;5.63;;;;;;;;;;5071092;28;20174;-42
2022/10/09 05:54:34;;;;;;;9.20;6.37;;;;;;;;;;5072495;28;20416;-42
2022/10/09 05:57:00;;;;;;;10.68;5.95;;;;;;;;;;5072433;28;20749;-42
2022/10/09 05:59:26;;;;;;;8.73;5.57;;;;;;;;;;5072116;28;20289;-43
2022/10/09 06:01:53;;;;;;;12.60;5.53;;;;;;;;;;5070252;28;20770;-43
2022/10/09 06:04:23;;;;;;;8.38;5.63;;;;;;;;;;5072198;28;20495;-42
2022/10/09 06:06:49;;;;;;;9.15;5.00;;;;;;;;;;5072288;28;20167;-42
2022/10/09 06:09:16;;;;;;;8.88;6.15;;;;;;;;;;5071400;28;20209;-42
2022/10/09 06:11:43;;;;;;;8.05;6.80;;;;;;;;;;5053263;28;20183;-42
2022/10/09 06:14:10;;;;;;;7.70;5.35;;;;;;;;;;5052360;28;20178;-42
2022/10/09 06:16:37;;;;;;;13.75;5.50;;;;;;;;;;5052100;28;20256;-42
2022/10/09 06:19:04;;;;;;;7.35;5.55;;;;;;;;;;5052176;28;20337;-42
2022/10/09 06:21:30;;;;;;;11.68;6.60;;;;;;;;;;5051576;28;20632;-42
2022/10/09 06:23:57;;;;;;;12.00;8.00;;;;;;;;;;5052163;28;20186;-42
2022/10/09 06:26:24;;;;;;;8.27;6.28;;;;;;;;;;5051753;28;20402;-42
2022/10/09 06:28:50;;;;;;;7.25;6.53;;;;;;;;;;5052068;28;20195;-42
2022/10/09 06:31:21;;;;;;;8.73;6.63;;;;;;;;;;5051831;28;20594;-42
2022/10/09 06:33:47;;;;;;;15.53;7.50;;;;;;;;;;5051621;28;20955;-42
2022/10/09 06:36:18;;;;;;;11.00;6.85;;;;;;;;;;5051715;28;20409;-42
2022/10/09 06:38:44;;;;;;;8.55;7.35;;;;;;;;;;5048618;28;20200;-42
2022/10/09 06:41:12;;;;;;;17.17;8.00;;;;;;;;;;5048719;28;20186;-42
2022/10/09 06:43:38;;;;;;;14.90;7.30;;;;;;;;;;5051641;28;20168;-42
2022/10/09 06:46:05;;;;;;;11.70;6.65;;;;;;;;;;5051864;28;20405;-42
2022/10/09 06:48:32;;;;;;;12.25;7.22;;;;;;;;;;5051618;28;20223;-42
2022/10/09 06:51:02;;;;;;;10.13;6.53;;;;;;;;;;5051782;28;20171;-42
2022/10/09 06:53:28;;;;;;;14.10;7.77;;;;;;;;;;5051244;28;20171;-42
2022/10/09 06:55:55;;;;;;;7.60;6.40;;;;;;;;;;5051729;28;20426;-42
2022/10/09 06:58:21;;;;;;;14.20;6.50;;;;;;;;;;5051257;28;20453;-42
2022/10/09 07:00:47;;;;;;;16.97;7.40;;;;;;;;;;5051622;28;20777;-42
2022/10/09 07:03:14;;;;;;;15.07;8.67;;;;;;;;;;5051222;28;20426;-42
2022/10/09 07:05:40;;;;;;;14.27;9.40;;;;;;;;;;5071395;28;20454;-42
2022/10/09 07:08:06;;;;;;;19.90;11.90;;;;;;;;;;5071155;28;20214;-42
2022/10/09 07:10:32;;;;;;;18.80;11.80;;;;;;;;;;5071367;28;20401;-42
2022/10/09 07:12:58;;;;;;;20.80;11.60;;;;;;;;;;5071154;28;20801;-42
2022/10/09 07:15:24;;;;;;;19.87;9.63;;;;;;;;;;5072004;28;20398;-41
2022/10/09 07:17:50;;;;;;;27.87;12.50;;;;;;;;;;5069007;28;20504;-42
2022/10/09 07:20:15;;;;;;;27.93;15.07;;;;;;;;;;5048685;28;20518;-46
2022/10/09 07:22:41;;;;;;;33.97;16.63;;;;;;;;;;5034846;28;20416;-45
2022/10/09 07:25:08;;;;;;;29.47;15.80;;;;;;;;;;5049954;28;20407;-45
2022/10/09 07:27:34;;;;;;;33.47;15.07;;;;;;;;;;5055142;28;20933;-47
2022/10/09 07:30:00;;;;;;;18.60;10.80;;;;;;;;;;5055794;28;20444;-43
2022/10/09 07:32:26;;;;;;;21.60;11.80;;;;;;;;;;5055329;28;20798;-45
2022/10/09 07:34:52;;;;;;;27.23;13.17;;;;;;;;;;5055301;28;20903;-45
2022/10/09 07:37:18;;;;;;;32.23;15.07;;;;;;;;;;5054796;28;20908;-47
2022/10/09 07:39:44;;;;;;;23.67;12.73;;;;;;;;;;5055253;28;20462;-45
2022/10/09 07:42:10;;;;;;;21.97;10.37;;;;;;;;;;5054694;28;20450;-40
2022/10/09 07:44:36;;;;;;;15.47;10.17;;;;;;;;;;5055045;28;20462;-41
2022/10/09 07:47:02;;;;;;;12.10;7.77;;;;;;;;;;5055265;28;20404;-45
2022/10/09 07:49:28;;;;;;;14.87;7.53;;;;;;;;;;5053903;28;20572;-44
2022/10/09 07:51:54;;;;;;;9.80;5.90;;;;;;;;;;5052362;28;20491;-45
2022/10/09 07:54:20;;;;;;;13.73;6.13;;;;;;;;;;5053160;28;20897;-43
2022/10/09 07:56:46;;;;;;;9.57;6.60;;;;;;;;;;5054137;28;20405;-47
2022/10/09 07:59:13;;;;;;;10.70;5.80;;;;;;;;;;5053044;28;20462;-45
2022/10/09 08:01:39;;;;;;;15.87;6.97;;;;;;;;;;5053940;28;20920;-45
2022/10/09 08:04:05;;;;;;;12.83;7.20;;;;;;;;;;5054762;28;20417;-47
2022/10/09 08:06:32;;;;;;;16.47;8.60;;;;;;;;;;5052688;28;20400;-44
2022/10/09 08:08:59;;;;;;;19.43;7.90;;;;;;;;;;5054599;28;20491;-44
2022/10/09 08:11:26;;;;;;;10.37;6.03;;;;;;;;;;5054479;28;20409;-47
2022/10/09 08:13:52;;;;;;;10.83;6.43;;;;;;;;;;5054279;28;20835;-45
2022/10/09 08:16:19;;;;;;;12.03;5.90;;;;;;;;;;5054550;28;20409;-45
2022/10/09 08:18:45;;;;;;;17.33;6.00;;;;;;;;;;5053994;28;20461;-45
2022/10/09 08:21:13;;;;;;;11.60;5.93;;;;;;;;;;5054220;28;20479;-47
2022/10/09 08:23:39;;;;;;;11.07;7.07;;;;;;;;;;5054010;28;20878;-44
2022/10/09 08:26:12;;;;;;;31.17;7.90;;;;;;;;;;5054294;28;20902;-46
2022/10/09 08:28:38;;;;;;;21.40;8.00;;;;;;;;;;5054018;28;20462;-46
2022/10/09 08:31:11;;;;;;;25.67;8.77;;;;;;;;;;5054080;28;20464;-42
2022/10/09 08:33:37;;;;;;;21.07;7.70;;;;;;;;;;5053019;28;20490;-42
2022/10/09 08:36:07;;;;;;;25.67;10.17;;;;;;;;;;5054234;28;20840;-42
2022/10/09 08:38:34;;;;;;;21.60;9.20;;;;;;;;;;5053681;28;20466;-42
2022/10/09 08:41:03;;;;;;;23.03;8.53;;;;;;;;;;5053891;28;20783;-42
2022/10/09 08:43:31;;;;;;;22.67;11.07;;;;;;;;;;5053591;28;20548;-42
2022/10/09 08:45:59;;;;;;;31.30;12.97;;;;;;;;;;5053833;28;20413;-42
2022/10/09 08:48:26;;;;;;;32.60;14.67;;;;;;;;;;5053592;28;20453;-42
2022/10/09 08:50:53;;;;;;;22.60;11.40;;;;;;;;;;5042261;28;20409;-42
2022/10/09 08:53:25;;;;;;;15.27;9.17;;;;;;;;;;5033513;28;21075;-42
2022/10/09 08:56:01;;;;;;;12.87;8.03;;;;;;;;;;5049434;28;20413;-42
2022/10/09 08:58:33;;;;;;;10.90;5.77;;;;;;;;;;5053297;28;20462;-43
2022/10/09 09:01:22;;;;;;;8.07;5.20;;;;;;;;;;5053790;28;20413;-43
2022/10/09 09:03:48;;;;;;;7.23;4.47;;;;;;;;;;5050181;28;20442;-43
2022/10/09 09:06:14;;;;;;;6.10;4.57;;;;;;;;;;5071506;28;20400;-43
2022/10/09 09:08:47;;;;;;;8.00;4.70;;;;;;;;;;5073348;28;20922;-43
2022/10/09 09:11:32;;;;;;;7.80;5.30;;;;;;;;;;5072240;28;20502;-43
2022/10/09 09:13:58;;;;;;;11.60;5.07;;;;;;;;;;5038242;28;20944;-43
2022/10/09 09:16:30;;;;;;;8.30;2.87;;;;;;;;;;5052619;28;20506;-43
2022/10/09 09:19:05;;;;;;;8.80;2.50;;;;;;;;;;5052971;28;20464;-43
2022/10/09 09:21:39;;;;;;;4.70;2.20;;;;;;;;;;5052953;28;20755;-44
2022/10/09 09:24:11;;;;;;;4.90;2.23;;;;;;;;;;5053462;28;20420;-43
2022/10/09 09:26:38;;;;;;;4.43;2.20;;;;;;;;;;5073304;28;20401;-43
2022/10/09 09:29:04;;;;;;;3.70;2.50;;;;;;;;;;5072844;28;20765;-43
2022/10/09 09:31:35;;;;;;;3.60;2.10;;;;;;;;;;5072707;28;20416;-43
2022/10/09 09:34:10;;;;;;;3.33;2.40;;;;;;;;;;5072969;28;20406;-43
2022/10/09 09:36:57;;;;;;;6.40;2.70;;;;;;;;;;5072630;28;20414;-42
2022/10/09 09:39:26;;;;;;;4.60;2.33;;;;;;;;;;5072075;28;20978;-44
2022/10/09 09:41:52;;;;;;;7.60;2.43;;;;;;;;;;5072399;28;20407;-45
2022/10/09 09:44:19;;;;;;;8.23;2.97;;;;;;;;;;5071852;28;20876;-43
2022/10/09 09:46:45;;;;;;;2.90;2.47;;;;;;;;;;5072733;28;20932;-42
2022/10/09 09:49:17;;;;;;;5.97;2.70;;;;;;;;;;5072621;28;20435;-42
2022/10/09 09:51:43;;;;;;;5.30;2.57;;;;;;;;;;5072088;28;20439;-42
2022/10/09 09:54:29;;;;;;;4.00;2.57;;;;;;;;;;5072615;28;20405;-42
2022/10/09 09:56:57;;;;;;;8.13;2.70;;;;;;;;;;5072376;28;20409;-42
2022/10/09 09:59:27;;;;;;;6.60;3.17;;;;;;;;;;5072232;28;20460;-44
2022/10/09 10:02:00;;;;;;;6.37;2.63;;;;;;;;;;5063810;28;20466;-45
2022/10/09 10:04:35;;;;;;;6.50;2.97;;;;;;;;;;5069121;28;20620;-44
2022/10/09 10:07:01;;;;;;;7.37;2.30;;;;;;;;;;5069002;28;20418;-44
2022/10/09 10:09:27;;;;;;;6.10;2.47;;;;;;;;;;5068655;28;20453;-44
2022/10/09 10:11:53;;;;;;;7.03;3.30;;;;;;;;;;5068535;28;20408;-44
2022/10/09 10:14:19;;;;;;;11.17;2.93;;;;;;;;;;5068873;28;20463;-44
2022/10/09 10:16:48;;;;;;;6.00;2.63;;;;;;;;;;5068740;28;20404;-44
2022/10/09 10:19:37;;;;;;;4.27;2.50;;;;;;;;;;5068714;28;20444;-44
2022/10/09 10:22:03;;;;;;;4.50;2.50;;;;;;;;;;5048170;28;20420;-45
2022/10/09 10:24:40;;;;;;;3.67;2.03;;;;;;;;;;5048632;28;20398;-44
2022/10/09 10:27:11;;;;;;;8.40;2.33;;;;;;;;;;5048674;28;20412;-44
2022/10/09 10:29:39;;;;;;;2.33;1.60;;;;;;;;;;5048469;28;20418;-44
2022/10/09 10:32:11;;;;;;;2.63;1.63;;;;;;;;;;5047567;28;20901;-44
2022/10/09 10:34:53;;;;;;;2.57;1.80;;;;;;;;;;5048710;28;20771;-45
2022/10/09 10:37:34;;;;;;;2.33;1.70;;;;;;;;;;5048386;28;20416;-45
2022/10/09 10:40:19;;;;;;;3.23;1.80;;;;;;;;;;5050756;28;20413;-45
2022/10/09 10:43:05;;;;;;;2.50;1.63;;;;;;;;;;5067475;28;20919;-45
2022/10/09 10:45:40;;;;;;;5.73;2.27;;;;;;;;;;5068209;28;20432;-45
2022/10/09 10:48:09;;;;;;;3.50;1.70;;;;;;;;;;5067772;28;20436;-44
2022/10/09 10:50:42;;;;;;;3.57;2.03;;;;;;;;;;5063134;28;20975;-42
2022/10/09 10:53:11;;;;;;;4.17;1.80;;;;;;;;;;5067259;28;20460;-42
2022/10/09 10:55:44;;;;;;;2.40;1.57;;;;;;;;;;5068833;28;20405;-43
2022/10/09 10:58:19;;;;;;;3.47;1.70;;;;;;;;;;5067893;28;20554;-46
2022/10/09 11:00:51;;;;;;;5.80;1.47;;;;;;;;;;5066324;28;20411;-46
2022/10/09 11:03:29;;;;;;;4.90;1.60;;;;;;;;;;5047425;28;20509;-46
2022/10/09 11:06:02;;;;;;;2.00;1.23;;;;;;;;;;5056728;28;20462;-47
2022/10/09 11:08:47;;;;;;;5.07;1.60;;;;;;;;;;5067658;28;20420;-49
2022/10/09 11:11:32;;;;;;;2.67;1.47;;;;;;;;;;5067291;28;20986;-48
2022/10/09 11:14:01;;;;;;;4.20;1.40;;;;;;;;;;5064727;28;20821;-47
2022/10/09 11:16:48;;;;;;;4.00;1.50;;;;;;;;;;5054453;28;20402;-48
2022/10/09 11:19:23;;;;;;;7.47;1.40;;;;;;;;;;5054203;28;20778;-45
2022/10/09 11:21:55;;;;;;;2.90;1.47;;;;;;;;;;5055135;28;20404;-45
2022/10/09 11:24:35;;;;;;;2.00;1.63;;;;;;;;;;5054506;28;20432;-45
2022/10/09 11:27:20;;;;;;;3.63;1.53;;;;;;;;;;5052955;28;20889;-45
2022/10/09 11:29:58;;;;;;;3.63;1.47;;;;;;;;;;5038844;28;20464;-45
2022/10/09 11:32:29;;;;;;;3.33;1.47;;;;;;;;;;5053138;28;20416;-44
2022/10/09 11:35:01;;;;;;;4.93;1.53;;;;;;;;;;5054125;28;20457;-45
2022/10/09 11:37:29;;;;;;;2.77;1.23;;;;;;;;;;5053663;28;20944;-45
2022/10/09 11:39:55;;;;;;;2.03;1.80;;;;;;;;;;5054116;28;20406;-45
2022/10/09 11:42:23;;;;;;;2.93;1.50;;;;;;;;;;5044427;28;20481;-45
2022/10/09 11:44:55;;;;;;;5.70;1.50;;;;;;;;;;5043252;28;20405;-45
2022/10/09 11:47:34;;;;;;;2.83;1.40;;;;;;;;;;5045611;28;20501;-44
2022/10/09 11:50:13;;;;;;;3.30;1.40;;;;;;;;;;5038247;28;20448;-44
2022/10/09 11:52:43;;;;;;;2.13;1.70;;;;;;;;;;5031741;28;20551;-44
2022/10/09 11:55:19;;;;;;;1.73;1.40;;;;;;;;;;5038234;28;20460;-45
2022/10/09 11:57:46;;;;;;;2.80;1.40;;;;;;;;;;5038767;28;20453;-44
2022/10/09 12:00:12;;;;;;;2.60;1.20;;;;;;;;;;5035441;28;20414;-44
2022/10/09 12:02:39;;;;;;;2.97;1.93;;;;;;;;;;5052659;28;20426;-44
2022/10/09 12:05:16;;;;;;;2.63;1.20;;;;;;;;;;5053471;28;20407;-45
2022/10/09 12:07:42;;;;;;;6.50;1.83;;;;;;;;;;5073558;28;20419;-44
2022/10/09 12:10:23;;;;;;;4.90;1.60;;;;;;;;;;5072221;28;20488;-44
2022/10/09 12:12:56;;;;;;;3.23;1.50;;;;;;;;;;5048702;28;20464;-44
2022/10/09 12:15:34;;;;;;;1.73;1.43;;;;;;;;;;5053231;28;20488;-45
2022/10/09 12:18:00;;;;;;;3.87;1.50;;;;;;;;;;5052925;28;20564;-44
2022/10/09 12:20:27;;;;;;;4.20;1.50;;;;;;;;;;5053025;28;20917;-44
2022/10/09 12:22:55;;;;;;;4.43;1.60;;;;;;;;;;5051571;28;20429;-44
2022/10/09 12:25:32;;;;;;;2.77;2.13;;;;;;;;;;5035424;28;20479;-44
2022/10/09 12:27:58;;;;;;;3.37;2.40;;;;;;;;;;5032275;28;20524;-45
2022/10/09 12:30:28;;;;;;;4.80;2.30;;;;;;;;;;5032684;28;20895;-42
2022/10/09 12:33:13;;;;;;;3.30;1.50;;;;;;;;;;5031858;28;20449;-46
2022/10/09 12:35:41;;;;;;;3.03;1.30;;;;;;;;;;5034359;28;20405;-43
2022/10/09 12:38:25;;;;;;;2.87;1.57;;;;;;;;;;5053259;28;20784;-48
2022/10/09 12:40:52;;;;;;;2.80;1.63;;;;;;;;;;5052934;28;20923;-47
2022/10/09 12:43:18;;;;;;;3.60;1.20;;;;;;;;;;5051752;28;20401;-46
2022/10/09 12:45:46;;;;;;;3.93;1.60;;;;;;;;;;5051663;28;20956;-44
2022/10/09 12:48:12;;;;;;;3.87;1.57;;;;;;;;;;5052926;28;20509;-44
2022/10/09 12:50:39;;;;;;;3.83;1.20;;;;;;;;;;5051657;28;20417;-45
2022/10/09 12:53:06;;;;;;;3.00;1.47;;;;;;;;;;5071327;28;20460;-44
2022/10/09 12:55:34;;;;;;;3.00;1.17;;;;;;;;;;5062113;28;20402;-44
2022/10/09 12:58:02;;;;;;;3.63;1.50;;;;;;;;;;5064830;28;20454;-44
2022/10/09 13:00:28;;;;;;;2.17;1.20;;;;;;;;;;5053537;28;21040;-45
2022/10/09 13:02:54;;;;;;;2.43;1.50;;;;;;;;;;5050306;28;20822;-43
2022/10/09 13:05:20;;;;;;;2.90;1.30;;;;;;;;;;5045418;28;20402;-45
2022/10/09 13:07:50;;;;;;;1.77;1.10;;;;;;;;;;5056246;28;20524;-42
2022/10/09 13:10:18;;;;;;;2.33;1.33;;;;;;;;;;5064107;28;20988;-44
2022/10/09 13:12:51;;;;;;;3.63;1.40;;;;;;;;;;5051847;28;20466;-48
2022/10/09 13:15:28;;;;;;;2.13;1.20;;;;;;;;;;5063084;28;20406;-44
2022/10/09 13:17:54;;;;;;;1.53;1.40;;;;;;;;;;5064595;28;20463;-44
2022/10/09 13:20:28;;;;;;;2.53;1.67;;;;;;;;;;5052831;28;20910;-47
2022/10/09 13:22:59;;;;;;;2.20;1.20;;;;;;;;;;5049839;28;20413;-47
2022/10/09 13:25:31;;;;;;;3.00;1.50;;;;;;;;;;5052917;28;20990;-47
2022/10/09 13:27:57;;;;;;;2.00;1.30;;;;;;;;;;5052929;28;20436;-47
2022/10/09 13:30:23;;;;;;;3.10;1.77;;;;;;;;;;5050637;28;20978;-47
2022/10/09 13:32:49;;;;;;;3.10;1.40;;;;;;;;;;5048991;28;20457;-46
2022/10/09 13:35:15;;;;;;;2.77;1.40;;;;;;;;;;5059539;28;20405;-47
2022/10/09 13:37:42;;;;;;;1.87;1.30;;;;;;;;;;5050099;28;20444;-46
2022/10/09 13:40:11;;;;;;;5.40;1.83;;;;;;;;;;5040233;28;20402;-48
2022/10/09 13:42:37;;;;;;;1.80;1.50;;;;;;;;;;5045420;28;20413;-49
2022/10/09 13:45:04;;;;;;;3.37;1.60;;;;;;;;;;5050841;28;20397;-48
2022/10/09 13:47:30;;;;;;;4.03;1.40;;;;;;;;;;5051231;28;20523;-49
2022/10/09 13:49:55;;;;;;;1.67;1.40;;;;;;;;;;5048613;28;20409;-47
2022/10/09 13:52:21;;;;;;;1.97;1.77;;;;;;;;;;5050177;28;20413;-48
2022/10/09 13:54:47;;;;;;;2.73;1.60;;;;;;;;;;5051479;28;20397;-47
2022/10/09 13:57:13;;;;;;;8.83;2.23;;;;;;;;;;5050729;28;20493;-46
2022/10/09 13:59:39;;;;;;;2.10;1.50;;;;;;;;;;5051530;28;20424;-49
2022/10/09 14:02:05;;;;;;;4.53;1.43;;;;;;;;;;5050898;28;20451;-48
2022/10/09 14:04:31;;;;;;;6.20;1.37;;;;;;;;;;5051231;28;20819;-47
2022/10/09 14:06:57;;;;;;;3.13;1.63;;;;;;;;;;5051321;28;20410;-48
2022/10/09 14:09:23;;;;;;;1.30;1.20;;;;;;;;;;5051664;28;21078;-49
2022/10/09 14:11:49;;;;;;;2.47;1.30;;;;;;;;;;5051098;28;20980;-48
2022/10/09 14:14:15;;;;;;;2.60;2.00;;;;;;;;;;5051260;28;20457;-47
2022/10/09 14:16:41;;;;;;;3.27;1.47;;;;;;;;;;5051440;28;20409;-46
2022/10/09 14:19:07;;;;;;;2.73;1.40;;;;;;;;;;5051297;28;20413;-46
2022/10/09 14:21:33;;;;;;;2.43;1.57;;;;;;;;;;5051093;28;20484;-49
2022/10/09 14:24:00;;;;;;;2.80;1.23;;;;;;;;;;5050909;28;20555;-49
2022/10/09 14:26:27;;;;;;;2.33;1.20;;;;;;;;;;5051459;28;20412;-48
2022/10/09 14:28:53;;;;;;;2.90;1.40;;;;;;;;;;5051246;28;20428;-47
2022/10/09 14:31:20;;;;;;;1.53;1.30;;;;;;;;;;5051175;28;20412;-47
2022/10/09 14:33:46;;;;;;;1.40;1.10;;;;;;;;;;5050881;28;21148;-48
2022/10/09 14:36:14;;;;;;;1.40;1.30;;;;;;;;;;5051000;28;20412;-49
2022/10/09 14:38:40;;;;;;;4.27;1.33;;;;;;;;;;5051266;28;20811;-47
2022/10/09 14:41:07;;;;;;;1.40;1.10;;;;;;;;;;5051046;28;20468;-47